createdAt,value
2023-04-08T00:00:17.753Z,51161.94
2023-04-08T00:02:45.094Z,51148.03
2023-04-08T00:05:12.242Z,51169.91
2023-04-08T00:07:39.333Z,51175.88
2023-04-08T00:10:07.333Z,51148.03
2023-04-08T00:12:34.585Z,51177.84
2023-04-08T00:15:01.753Z,51169.91
2023-04-08T00:17:28.881Z,51165.91
2023-04-08T00:19:56.695Z,51179.84
2023-04-08T00:22:23.799Z,51146.03
2023-04-08T00:24:50.854Z,51167.91
2023-04-08T00:27:18.077Z,51154.00
2023-04-08T00:29:45.222Z,51177.84
2023-04-08T00:32:13.198Z,51155.97
2023-04-08T00:34:40.256Z,51161.94
2023-04-08T00:37:07.613Z,51138.09
2023-04-08T00:39:35.088Z,51150.03
2023-04-08T00:42:02.256Z,51154.00
2023-04-08T00:44:29.705Z,51154.00
2023-04-08T00:46:56.928Z,51157.97
2023-04-08T00:49:24.099Z,51148.03
2023-04-08T00:51:51.610Z,51146.03
2023-04-08T00:54:18.698Z,51161.94
2023-04-08T00:56:46.175Z,51134.13
2023-04-08T00:59:15.004Z,51154.00
2023-04-08T01:01:49.071Z,51154.00
2023-04-08T01:04:40.089Z,51157.97
2023-04-08T01:07:16.042Z,51150.03
2023-04-08T01:09:49.179Z,51136.09
2023-04-08T01:12:27.412Z,51150.03
2023-04-08T01:15:08.536Z,51155.97
2023-04-08T01:17:38.047Z,51175.88
2023-04-08T01:20:06.262Z,51148.03
2023-04-08T01:22:54.871Z,51159.97
2023-04-08T01:25:28.636Z,51159.97
2023-04-08T01:27:59.183Z,51150.03
2023-04-08T01:30:29.368Z,51154.00
2023-04-08T01:32:59.893Z,51171.88
2023-04-08T01:35:27.935Z,51187.78
2023-04-08T01:37:56.921Z,51154.00
2023-04-08T01:40:24.197Z,51163.94
2023-04-08T01:42:57.066Z,51157.97
2023-04-08T01:45:25.241Z,51150.03
2023-04-08T01:47:53.598Z,51177.84
2023-04-08T01:50:21.698Z,51148.03
2023-04-08T01:52:53.060Z,51173.88
2023-04-08T01:55:20.922Z,51189.78
2023-04-08T01:57:53.534Z,51157.97
2023-04-08T02:00:26.510Z,51169.91
2023-04-08T02:02:55.454Z,51155.97
2023-04-08T02:05:22.730Z,51154.00
2023-04-08T02:07:50.620Z,51152.00
2023-04-08T02:10:17.799Z,51159.97
2023-04-08T02:12:46.243Z,51152.00
2023-04-08T02:15:14.435Z,51173.88
2023-04-08T02:17:44.603Z,51157.97
2023-04-08T02:20:24.642Z,51155.97
2023-04-08T02:23:14.936Z,51165.91
2023-04-08T02:25:45.714Z,51157.97
2023-04-08T02:28:15.777Z,51163.94
2023-04-08T02:30:45.856Z,51193.75
2023-04-08T02:33:15.474Z,51173.88
2023-04-08T02:35:43.881Z,51154.00
2023-04-08T02:38:11.267Z,51163.94
2023-04-08T02:40:38.567Z,51173.88
2023-04-08T02:43:05.700Z,51161.94
2023-04-08T02:45:39.200Z,51140.09
2023-04-08T02:48:06.747Z,51148.03
2023-04-08T02:50:34.149Z,51144.06
2023-04-08T02:53:01.547Z,51173.88
2023-04-08T02:55:31.045Z,51193.75
2023-04-08T02:57:58.220Z,51132.13
2023-04-08T03:00:25.444Z,51159.97
2023-04-08T03:02:52.739Z,51159.97
2023-04-08T03:05:20.008Z,51197.72
2023-04-08T03:07:47.157Z,51177.84
2023-04-08T03:10:14.257Z,51165.91
2023-04-08T03:12:41.359Z,51179.84
2023-04-08T03:15:08.924Z,51155.97
2023-04-08T03:17:36.285Z,51126.16
2023-04-08T03:20:07.003Z,51169.91
2023-04-08T03:22:34.824Z,51144.06
2023-04-08T03:25:02.018Z,51165.91
2023-04-08T03:27:29.367Z,51181.81
2023-04-08T03:29:57.903Z,51150.03
2023-04-08T03:32:25.316Z,51173.88
2023-04-08T03:34:53.514Z,51154.00
2023-04-08T03:37:20.817Z,51159.97
2023-04-08T03:39:47.945Z,51179.84
2023-04-08T03:42:15.254Z,51148.03
2023-04-08T03:44:42.544Z,51155.97
2023-04-08T03:47:09.868Z,51171.88
2023-04-08T03:49:36.948Z,51142.06
2023-04-08T03:52:04.141Z,51199.72
2023-04-08T03:54:31.318Z,51173.88
2023-04-08T03:56:58.380Z,51167.91
2023-04-08T03:59:25.907Z,51173.88
2023-04-08T04:01:53.700Z,51161.94
2023-04-08T04:04:21.459Z,51169.91
2023-04-08T04:06:48.873Z,51177.84
2023-04-08T04:09:16.980Z,51159.97
2023-04-08T04:11:44.202Z,51165.91
2023-04-08T04:14:11.501Z,51171.88
2023-04-08T04:16:38.699Z,51161.94
2023-04-08T04:19:05.857Z,51157.97
2023-04-08T04:21:33.979Z,51157.97
2023-04-08T04:24:01.127Z,51179.84
2023-04-08T04:26:28.240Z,51167.91
2023-04-08T04:28:55.403Z,51173.88
2023-04-08T04:31:26.522Z,51163.94
2023-04-08T04:33:54.285Z,51167.91
2023-04-08T04:36:21.429Z,51159.97
2023-04-08T04:38:50.543Z,51161.94
2023-04-08T04:41:18.437Z,51185.81
2023-04-08T04:43:45.864Z,51193.75
2023-04-08T04:46:13.071Z,51159.97
2023-04-08T04:48:40.781Z,51161.94
2023-04-08T04:51:07.930Z,51181.81
2023-04-08T04:53:35.508Z,51173.88
2023-04-08T04:56:02.613Z,51136.09
2023-04-08T04:58:30.691Z,51193.75
2023-04-08T05:00:58.247Z,51148.03
2023-04-08T05:03:25.561Z,51144.06
2023-04-08T05:05:54.569Z,51181.81
2023-04-08T05:08:22.132Z,51163.94
2023-04-08T05:10:52.660Z,51159.97
2023-04-08T05:13:19.760Z,51142.06
2023-04-08T05:15:46.938Z,51179.84
2023-04-08T05:18:14.255Z,51167.91
2023-04-08T05:20:41.338Z,51165.91
2023-04-08T05:23:08.803Z,51177.84
2023-04-08T05:25:36.302Z,51154.00
2023-04-08T05:28:03.996Z,51195.75
2023-04-08T05:30:31.512Z,51167.91
2023-04-08T05:33:00.630Z,51154.00
2023-04-08T05:35:29.276Z,51193.75
2023-04-08T05:37:56.544Z,51173.88
2023-04-08T05:40:24.092Z,51169.91
2023-04-08T05:42:51.410Z,51179.84
2023-04-08T05:45:19.477Z,51211.66
2023-04-08T05:47:47.102Z,51189.78
2023-04-08T05:50:15.180Z,51173.88
2023-04-08T05:52:49.114Z,51185.81
2023-04-08T05:55:23.712Z,51189.78
2023-04-08T05:57:51.433Z,51179.84
2023-04-08T06:00:22.835Z,51227.56
2023-04-08T06:02:51.089Z,51165.91
2023-04-08T06:05:19.343Z,51161.94
2023-04-08T06:07:46.450Z,51163.94
2023-04-08T06:10:15.289Z,51215.63
2023-04-08T06:12:42.577Z,51215.63
2023-04-08T06:15:10.713Z,51197.72
2023-04-08T06:17:38.609Z,51161.94
2023-04-08T06:20:11.870Z,51195.75
2023-04-08T06:22:38.985Z,51177.84
2023-04-08T06:25:06.940Z,51191.78
2023-04-08T06:27:34.075Z,51203.69
2023-04-08T06:30:01.423Z,51211.66
2023-04-08T06:32:28.653Z,51191.78
2023-04-08T06:34:55.769Z,51157.97
2023-04-08T06:37:22.934Z,51177.84
2023-04-08T06:39:49.995Z,51179.84
2023-04-08T06:42:17.038Z,51175.88
2023-04-08T06:45:00.442Z,51201.72
2023-04-08T06:47:27.589Z,51187.78
2023-04-08T06:49:54.656Z,51159.97
2023-04-08T06:52:21.725Z,51177.84
2023-04-08T06:54:48.747Z,51197.72
2023-04-08T06:57:15.946Z,51197.72
2023-04-08T06:59:42.984Z,51165.91
2023-04-08T07:02:10.206Z,51173.88
2023-04-08T07:04:37.848Z,51181.81
2023-04-08T07:07:04.930Z,51187.78
2023-04-08T07:09:32.633Z,51177.84
2023-04-08T07:11:59.968Z,51185.81
2023-04-08T07:14:27.077Z,51195.75
2023-04-08T07:16:54.219Z,51165.91
2023-04-08T07:19:22.713Z,51203.69
2023-04-08T07:21:50.335Z,51195.75
2023-04-08T07:24:17.410Z,51185.81
2023-04-08T07:26:44.875Z,51205.69
2023-04-08T07:29:12.080Z,51193.75
2023-04-08T07:31:39.152Z,51189.78
2023-04-08T07:34:06.237Z,51173.88
2023-04-08T07:36:33.384Z,51199.72
2023-04-08T07:39:00.703Z,51173.88
2023-04-08T07:41:31.637Z,51201.72
2023-04-08T07:43:58.777Z,51217.59
2023-04-08T07:46:26.492Z,51213.63
2023-04-08T07:48:53.712Z,51207.66
2023-04-08T07:51:21.084Z,51177.84
2023-04-08T07:53:48.411Z,51211.66
2023-04-08T07:56:18.284Z,51217.59
2023-04-08T07:58:47.226Z,51229.53
2023-04-08T08:01:23.589Z,51209.66
2023-04-08T08:03:53.018Z,51175.88
2023-04-08T08:06:21.039Z,51199.72
2023-04-08T08:08:48.407Z,51209.66
2023-04-08T08:11:15.535Z,51229.53
2023-04-08T08:13:42.837Z,51201.72
2023-04-08T08:16:11.653Z,51177.84
2023-04-08T08:18:40.593Z,51175.88
2023-04-08T08:21:08.779Z,51195.75
2023-04-08T08:23:36.209Z,51221.59
2023-04-08T08:26:11.656Z,51199.72
2023-04-08T08:28:39.839Z,51205.69
2023-04-08T08:31:07.257Z,51211.66
2023-04-08T08:33:34.515Z,51235.50
2023-04-08T08:36:01.869Z,51229.53
2023-04-08T08:38:28.991Z,51219.59
2023-04-08T08:41:00.351Z,51215.63
2023-04-08T08:43:29.730Z,51199.72
2023-04-08T08:45:56.847Z,51213.63
2023-04-08T08:48:24.018Z,51221.59
2023-04-08T08:50:51.673Z,51237.50
2023-04-08T08:53:19.791Z,51219.59
2023-04-08T08:58:16.999Z,51203.69
2023-04-08T09:00:45.011Z,51197.72
2023-04-08T09:03:41.719Z,51231.53
2023-04-08T09:06:10.205Z,51215.63
2023-04-08T09:08:38.999Z,51217.59
2023-04-08T09:11:23.841Z,51211.66
2023-04-08T09:13:51.181Z,51225.56
2023-04-08T09:16:20.164Z,51227.56
2023-04-08T09:18:49.496Z,51239.47
2023-04-08T09:21:18.311Z,51253.41
2023-04-08T09:23:48.732Z,51205.69
2023-04-08T09:26:22.508Z,51219.59
2023-04-08T09:29:14.242Z,51235.50
2023-04-08T09:31:47.348Z,51237.50
2023-04-08T09:34:25.651Z,51209.66
2023-04-08T09:36:54.299Z,51217.59
2023-04-08T09:39:21.826Z,51215.63
2023-04-08T09:41:51.289Z,51215.63
2023-04-08T09:44:21.199Z,51219.59
2023-04-08T09:46:52.749Z,51233.50
2023-04-08T09:49:25.960Z,51227.56
2023-04-08T09:52:24.790Z,51223.56
2023-04-08T09:55:05.134Z,51225.56
2023-04-08T09:57:42.633Z,51221.59
2023-04-08T10:00:18.177Z,51229.53
2023-04-08T10:03:21.419Z,51235.50
2023-04-08T10:05:49.834Z,51223.56
2023-04-08T10:08:17.189Z,51239.47
2023-04-08T10:10:46.169Z,51203.69
2023-04-08T10:13:14.934Z,51219.59
2023-04-08T10:15:43.316Z,51217.59
2023-04-08T10:18:10.530Z,51205.69
2023-04-08T10:20:37.691Z,51221.59
2023-04-08T10:23:13.344Z,51225.56
2023-04-08T10:25:45.563Z,51237.50
2023-04-08T10:28:17.619Z,51221.59
2023-04-08T10:30:57.722Z,51201.72
2023-04-08T10:33:34.978Z,51203.69
2023-04-08T10:36:15.115Z,51219.59
2023-04-08T10:38:43.038Z,51215.63
2023-04-08T10:41:14.346Z,51207.66
2023-04-08T10:43:41.914Z,51241.47
2023-04-08T10:46:11.954Z,51203.69
2023-04-08T10:48:39.301Z,51205.69
2023-04-08T10:51:06.615Z,51231.53
2023-04-08T10:53:39.812Z,51227.56
2023-04-08T10:56:15.527Z,51249.41
2023-04-08T10:58:56.440Z,51243.47
2023-04-08T11:01:23.785Z,51225.56
2023-04-08T11:03:51.700Z,51245.44
2023-04-08T11:06:19.734Z,51237.50
2023-04-08T11:08:47.379Z,51243.47
2023-04-08T11:11:17.689Z,51229.53
2023-04-08T11:13:53.219Z,51215.63
2023-04-08T11:16:24.323Z,51233.50
2023-04-08T11:18:51.831Z,51229.53
2023-04-08T11:21:20.591Z,51221.59
2023-04-08T11:23:51.922Z,51229.53
2023-04-08T11:26:21.165Z,51245.44
2023-04-08T11:28:52.327Z,51207.66
2023-04-08T11:31:23.518Z,51217.59
2023-04-08T11:33:56.420Z,51193.75
2023-04-08T11:36:23.940Z,51223.56
2023-04-08T11:38:54.059Z,51189.78
2023-04-08T11:41:22.647Z,51199.72
2023-04-08T11:43:55.153Z,51209.66
2023-04-08T11:46:23.760Z,51201.72
2023-04-08T11:49:08.613Z,51227.56
2023-04-08T11:51:55.232Z,51223.56
2023-04-08T11:54:30.472Z,51215.63
2023-04-08T11:56:58.634Z,51233.50
2023-04-08T11:59:28.998Z,51213.63
2023-04-08T12:01:57.071Z,51221.59
2023-04-08T12:04:24.388Z,51219.59
2023-04-08T12:06:52.520Z,51245.44
2023-04-08T12:09:19.913Z,51239.47
2023-04-08T12:11:47.336Z,51233.50
2023-04-08T12:14:15.235Z,51251.41
2023-04-08T12:16:42.672Z,51217.59
2023-04-08T12:19:09.851Z,51223.56
2023-04-08T12:21:38.241Z,51217.59
2023-04-08T12:24:05.613Z,51233.50
2023-04-08T12:26:32.782Z,51193.75
2023-04-08T12:28:59.846Z,51239.47
2023-04-08T12:31:29.023Z,51231.53
2023-04-08T12:33:56.203Z,51241.47
2023-04-08T12:36:23.569Z,51221.59
2023-04-08T12:38:50.805Z,51203.69
2023-04-08T12:41:18.087Z,51231.53
2023-04-08T12:43:45.608Z,51203.69
2023-04-08T12:46:13.387Z,51215.63
2023-04-08T12:48:41.086Z,51223.56
2023-04-08T12:51:10.409Z,51199.72
2023-04-08T12:53:37.718Z,51223.56
2023-04-08T12:56:05.513Z,51223.56
2023-04-08T12:58:32.736Z,51227.56
2023-04-08T13:00:59.893Z,51237.50
2023-04-08T13:03:30.412Z,51211.66
2023-04-08T13:05:59.145Z,51213.63
2023-04-08T13:08:26.465Z,51217.59
2023-04-08T13:10:53.926Z,51277.25
2023-04-08T13:13:21.217Z,51237.50
2023-04-08T13:15:49.052Z,51249.41
2023-04-08T13:18:16.669Z,51273.28
2023-04-08T13:20:43.954Z,51253.41
2023-04-08T13:23:11.986Z,51259.34
2023-04-08T13:25:39.148Z,51263.34
2023-04-08T13:28:06.305Z,51255.38
2023-04-08T13:30:33.452Z,51253.41
2023-04-08T13:33:00.638Z,51225.56
2023-04-08T13:35:28.030Z,51229.53
2023-04-08T13:37:55.308Z,51237.50
2023-04-08T13:40:22.488Z,51221.59
2023-04-08T13:42:49.719Z,51227.56
2023-04-08T13:45:16.968Z,51241.47
2023-04-08T13:47:44.301Z,51257.38
2023-04-08T13:50:11.712Z,51251.41
2023-04-08T13:52:39.016Z,51227.56
2023-04-08T13:55:06.938Z,51223.56
2023-04-08T13:57:34.188Z,51205.69
2023-04-08T14:00:01.362Z,51209.66
2023-04-08T14:02:28.801Z,51209.66
2023-04-08T14:04:57.530Z,51219.59
2023-04-08T14:07:24.732Z,51205.69
2023-04-08T14:09:52.036Z,51227.56
2023-04-08T14:12:19.170Z,51237.50
2023-04-08T14:14:46.278Z,51225.56
2023-04-08T14:17:13.524Z,51235.50
2023-04-08T14:19:41.979Z,51229.53
2023-04-08T14:22:09.231Z,51235.50
2023-04-08T14:24:36.561Z,51197.72
2023-04-08T14:27:03.891Z,51239.47
2023-04-08T14:29:31.124Z,51201.72
2023-04-08T14:31:58.414Z,51237.50
2023-04-08T14:34:25.843Z,51229.53
2023-04-08T14:36:53.153Z,51253.41
2023-04-08T14:39:20.407Z,51221.59
2023-04-08T14:41:48.162Z,51209.66
2023-04-08T14:44:15.559Z,51217.59
2023-04-08T14:46:42.972Z,51227.56
2023-04-08T14:49:10.267Z,51221.59
2023-04-08T14:51:38.174Z,51235.50
2023-04-08T14:54:05.998Z,51225.56
2023-04-08T14:56:33.361Z,51241.47
2023-04-08T14:59:00.641Z,51231.53
2023-04-08T15:01:29.023Z,51227.56
2023-04-08T15:03:56.359Z,51225.56
2023-04-08T15:06:23.722Z,51217.59
2023-04-08T15:08:51.126Z,51229.53
2023-04-08T15:11:20.798Z,51233.50
2023-04-08T15:13:48.763Z,51215.63
2023-04-08T15:16:16.130Z,51211.66
2023-04-08T15:18:43.435Z,51243.47
2023-04-08T15:21:10.625Z,51229.53
2023-04-08T15:23:41.934Z,51217.59
2023-04-08T15:26:10.648Z,51229.53
2023-04-08T15:28:38.269Z,51239.47
2023-04-08T15:31:05.961Z,51237.50
2023-04-08T15:33:33.198Z,51257.38
2023-04-08T15:36:04.337Z,51209.66
2023-04-08T15:38:33.723Z,51219.59
2023-04-08T15:41:00.982Z,51219.59
2023-04-08T15:43:28.504Z,51213.63
2023-04-08T15:45:55.706Z,51209.66
2023-04-08T15:48:22.877Z,51211.66
2023-04-08T15:50:50.022Z,51241.47
2023-04-08T15:53:17.188Z,51209.66
2023-04-08T15:55:44.277Z,51197.72
2023-04-08T15:58:11.361Z,51201.72
2023-04-08T16:00:38.507Z,51241.47
2023-04-08T16:03:05.923Z,51193.75
2023-04-08T16:05:35.921Z,51201.72
2023-04-08T16:08:04.716Z,51205.69
2023-04-08T16:10:31.873Z,51235.50
2023-04-08T16:12:59.426Z,51249.41
2023-04-08T16:15:26.738Z,51249.41
2023-04-08T16:17:54.327Z,51209.66
2023-04-08T16:23:40.150Z,51209.66
2023-04-08T16:26:19.870Z,51201.72
2023-04-08T16:28:47.232Z,51221.59
2023-04-08T16:31:14.597Z,51195.75
2023-04-08T16:33:41.891Z,51217.59
2023-04-08T16:36:09.442Z,51205.69
2023-04-08T16:38:37.379Z,51201.72
2023-04-08T16:41:06.286Z,51213.63
2023-04-08T16:43:33.435Z,51223.56
2023-04-08T16:46:00.790Z,51225.56
2023-04-08T16:48:28.231Z,51221.59
2023-04-08T16:50:55.428Z,51207.66
2023-04-08T16:53:23.057Z,51201.72
2023-04-08T16:55:50.851Z,51225.56
2023-04-08T16:58:21.334Z,51249.41
2023-04-08T17:00:48.944Z,51209.66
2023-04-08T17:03:16.996Z,51215.63
2023-04-08T17:05:44.672Z,51215.63
2023-04-08T17:08:12.977Z,51255.38
2023-04-08T17:10:41.038Z,51199.72
2023-04-08T17:13:08.236Z,51239.47
2023-04-08T17:15:36.482Z,51221.59
2023-04-08T17:18:03.762Z,51217.59
2023-04-08T17:20:31.190Z,51215.63
2023-04-08T17:22:58.618Z,51197.72
2023-04-08T17:25:26.352Z,51209.66
2023-04-08T17:27:53.465Z,51209.66
2023-04-08T17:30:20.924Z,51237.50
2023-04-08T17:32:48.329Z,51219.59
2023-04-08T17:35:15.697Z,51217.59
2023-04-08T17:37:42.893Z,51223.56
2023-04-08T17:40:10.352Z,51229.53
2023-04-08T17:42:37.751Z,51209.66
2023-04-08T17:45:05.814Z,51231.53
2023-04-08T17:47:32.984Z,51215.63
2023-04-08T17:50:00.919Z,51211.66
2023-04-08T17:52:28.108Z,51201.72
2023-04-08T17:54:55.667Z,51229.53
2023-04-08T17:57:22.999Z,51209.66
2023-04-08T17:59:50.738Z,51207.66
2023-04-08T18:02:20.676Z,51217.59
2023-04-08T18:04:48.583Z,51205.69
2023-04-08T18:07:18.376Z,51245.44
2023-04-08T18:09:49.549Z,51209.66
2023-04-08T18:12:26.221Z,51225.56
2023-04-08T18:14:53.473Z,51209.66
2023-04-08T18:17:28.488Z,51203.69
2023-04-08T18:19:55.876Z,51215.63
2023-04-08T18:22:23.039Z,51219.59
2023-04-08T18:24:50.480Z,51191.78
2023-04-08T18:27:17.735Z,51219.59
2023-04-08T18:29:44.868Z,51219.59
2023-04-08T18:32:12.032Z,51215.63
2023-04-08T18:34:39.244Z,51201.72
2023-04-08T18:37:06.581Z,51221.59
2023-04-08T18:39:33.873Z,51201.72
2023-04-08T18:42:01.573Z,51161.94
2023-04-08T18:44:28.673Z,51203.69
2023-04-08T18:46:56.478Z,51209.66
2023-04-08T18:49:23.661Z,51217.59
2023-04-08T18:52:01.350Z,51201.72
2023-04-08T18:54:29.402Z,51211.66
2023-04-08T18:56:56.730Z,51243.47
2023-04-08T18:59:24.014Z,51245.44
2023-04-08T19:01:51.336Z,51189.78
2023-04-08T19:04:18.916Z,51207.66
2023-04-08T19:06:46.116Z,51209.66
2023-04-08T19:09:14.395Z,51219.59
2023-04-08T19:11:41.646Z,51203.69
2023-04-08T19:14:08.805Z,51189.78
2023-04-08T19:16:36.021Z,51207.66
2023-04-08T19:19:03.292Z,51215.63
2023-04-08T19:21:31.801Z,51223.56
2023-04-08T19:23:59.040Z,51223.56
2023-04-08T19:26:26.095Z,51201.72
2023-04-08T19:28:53.201Z,51217.59
2023-04-08T19:31:21.642Z,51213.63
2023-04-08T19:33:48.964Z,51187.78
2023-04-08T19:36:16.475Z,51219.59
2023-04-08T19:38:43.576Z,51213.63
2023-04-08T19:41:10.943Z,51217.59
2023-04-08T19:43:38.060Z,51227.56
2023-04-08T19:46:05.224Z,51205.69
2023-04-08T19:48:34.130Z,51205.69
2023-04-08T19:51:01.275Z,51217.59
2023-04-08T19:53:28.416Z,51191.78
2023-04-08T19:56:02.885Z,51191.78
2023-04-08T19:58:30.174Z,51181.81
2023-04-08T20:00:57.285Z,51207.66
2023-04-08T20:03:25.979Z,51209.66
2023-04-08T20:05:53.263Z,51221.59
2023-04-08T20:08:20.601Z,51195.75
2023-04-08T20:10:49.517Z,51173.88
2023-04-08T20:13:16.759Z,51179.84
2023-04-08T20:15:45.293Z,51175.88
2023-04-08T20:18:13.648Z,51193.75
2023-04-08T20:20:41.427Z,51171.88
2023-04-08T20:23:08.543Z,51185.81
2023-04-08T20:25:35.802Z,51191.78
2023-04-08T20:28:03.216Z,51231.53
2023-04-08T20:30:30.378Z,51197.72
2023-04-08T20:32:57.667Z,51213.63
2023-04-08T20:35:26.180Z,51227.56
2023-04-08T20:37:53.770Z,51205.69
2023-04-08T20:40:21.193Z,51205.69
2023-04-08T20:42:48.443Z,51193.75
2023-04-08T20:45:15.604Z,51197.72
2023-04-08T20:47:44.705Z,51203.69
2023-04-08T20:50:12.471Z,51215.63
2023-04-08T20:52:39.729Z,51179.84
2023-04-08T20:55:08.107Z,51177.84
2023-04-08T20:57:35.617Z,51209.66
2023-04-08T21:00:05.765Z,51165.91
2023-04-08T21:02:33.798Z,51173.88
2023-04-08T21:05:01.251Z,51177.84
2023-04-08T21:07:28.434Z,51211.66
2023-04-08T21:09:55.799Z,51215.63
2023-04-08T21:12:23.070Z,51225.56
2023-04-08T21:14:50.963Z,51163.94
2023-04-08T21:17:18.595Z,51205.69
2023-04-08T21:19:46.686Z,51205.69
2023-04-08T21:22:13.912Z,51227.56
2023-04-08T21:24:40.995Z,51197.72
2023-04-08T21:27:08.116Z,51197.72
2023-04-08T21:29:35.515Z,51183.81
2023-04-08T21:32:02.711Z,51195.75
2023-04-08T21:34:30.124Z,51209.66
2023-04-08T21:36:57.234Z,51177.84
2023-04-08T21:39:24.364Z,51205.69
2023-04-08T21:41:51.452Z,51219.59
2023-04-08T21:44:18.561Z,51199.72
2023-04-08T21:46:45.883Z,51205.69
2023-04-08T21:49:13.859Z,51173.88
2023-04-08T21:51:41.081Z,51205.69
2023-04-08T21:54:08.179Z,51213.63
2023-04-08T21:56:35.415Z,51213.63
2023-04-08T21:59:02.578Z,51203.69
2023-04-08T22:01:30.506Z,51221.59
2023-04-08T22:03:58.052Z,51205.69
2023-04-08T22:06:32.253Z,51163.94
2023-04-08T22:09:00.306Z,51207.66
2023-04-08T22:11:27.468Z,51205.69
2023-04-08T22:13:54.551Z,51203.69
2023-04-08T22:16:21.709Z,51203.69
2023-04-08T22:18:49.106Z,51201.72
2023-04-08T22:21:16.385Z,51197.72
2023-04-08T22:23:43.522Z,51175.88
2023-04-08T22:26:10.780Z,51159.97
2023-04-08T22:28:38.024Z,51181.81
2023-04-08T22:31:11.638Z,51173.88
2023-04-08T22:33:39.612Z,51179.84
2023-04-08T22:36:06.808Z,51161.94
2023-04-08T22:38:34.027Z,51181.81
2023-04-08T22:41:01.389Z,51225.56
2023-04-08T22:43:28.489Z,51171.88
2023-04-08T22:45:55.859Z,51189.78
2023-04-08T22:48:23.054Z,51171.88
2023-04-08T22:50:50.166Z,51191.78
2023-04-08T22:53:17.463Z,51171.88
2023-04-08T22:55:44.627Z,51132.13
2023-04-08T22:58:12.884Z,51179.84
2023-04-08T23:00:40.051Z,51173.88
2023-04-08T23:03:07.483Z,51199.72
2023-04-08T23:05:34.718Z,51199.72
2023-04-08T23:08:01.851Z,51197.72
2023-04-08T23:10:28.931Z,51205.69
2023-04-08T23:12:56.275Z,51205.69
2023-04-08T23:15:23.835Z,51183.81
2023-04-08T23:17:51.168Z,51205.69
2023-04-08T23:20:18.423Z,51207.66
2023-04-08T23:22:45.582Z,51185.81
2023-04-08T23:25:12.751Z,51213.63
2023-04-08T23:27:39.907Z,51201.72
2023-04-08T23:30:07.922Z,51189.78
2023-04-08T23:32:35.811Z,51177.84
2023-04-08T23:35:03.427Z,51193.75
2023-04-08T23:37:31.159Z,51201.72
2023-04-08T23:39:58.175Z,51177.84
2023-04-08T23:42:27.385Z,51191.78
2023-04-08T23:44:55.326Z,51175.88
2023-04-08T23:47:23.044Z,51177.84
2023-04-08T23:49:50.117Z,51175.88
2023-04-08T23:52:17.180Z,51179.84
2023-04-08T23:54:44.251Z,51197.72
2023-04-08T23:57:11.439Z,51195.75
2023-04-08T23:59:38.469Z,51163.94
